createdAt,value
2018-12-22T00:00:27.274Z,0.00
2018-12-22T00:01:27.246Z,0.00
2018-12-22T00:02:27.249Z,0.00
2018-12-22T00:03:27.244Z,0.00
2018-12-22T00:04:27.243Z,0.00
2018-12-22T00:05:27.269Z,0.00
2018-12-22T00:06:27.241Z,0.00
2018-12-22T00:07:27.244Z,0.00
2018-12-22T00:08:27.240Z,0.00
2018-12-22T00:09:27.238Z,0.00
2018-12-22T00:10:27.264Z,0.00
2018-12-22T00:11:27.236Z,0.00
2018-12-22T00:12:27.229Z,0.00
2018-12-22T00:13:27.232Z,0.00
2018-12-22T00:14:27.239Z,0.00
2018-12-22T00:15:27.256Z,0.00
2018-12-22T00:16:27.337Z,0.00
2018-12-22T00:17:27.232Z,0.00
2018-12-22T00:18:27.229Z,0.00
2018-12-22T00:19:27.232Z,0.00
2018-12-22T00:20:27.252Z,0.00
2018-12-22T00:21:27.221Z,0.00
2018-12-22T00:22:27.228Z,0.00
2018-12-22T00:23:27.221Z,0.00
2018-12-22T00:24:27.218Z,0.00
2018-12-22T00:25:27.247Z,0.00
2018-12-22T00:26:27.218Z,0.00
2018-12-22T00:27:27.215Z,0.00
2018-12-22T00:28:27.215Z,0.00
2018-12-22T00:29:27.218Z,0.00
2018-12-22T00:30:27.243Z,0.00
2018-12-22T00:31:27.434Z,0.00
2018-12-22T00:32:27.209Z,0.00
2018-12-22T00:33:27.208Z,0.00
2018-12-22T00:34:27.206Z,0.00
2018-12-22T00:35:27.245Z,0.00
2018-12-22T00:36:27.203Z,0.00
2018-12-22T00:37:27.202Z,0.00
2018-12-22T00:38:27.203Z,0.00
2018-12-22T00:39:27.207Z,0.00
2018-12-22T00:40:27.227Z,0.00
2018-12-22T00:41:27.210Z,0.00
2018-12-22T00:42:27.195Z,0.00
2018-12-22T00:43:27.191Z,0.00
2018-12-22T00:44:27.191Z,0.00
2018-12-22T00:45:27.220Z,0.00
2018-12-22T00:46:27.191Z,0.00
2018-12-22T00:47:27.191Z,0.00
2018-12-22T00:48:27.188Z,0.00
2018-12-22T00:49:27.188Z,0.00
2018-12-22T00:50:27.211Z,0.00
2018-12-22T00:51:27.183Z,0.00
2018-12-22T00:52:27.180Z,0.00
2018-12-22T00:53:27.183Z,0.00
2018-12-22T00:54:27.190Z,0.00
2018-12-22T00:55:27.212Z,0.00
2018-12-22T00:56:27.181Z,0.00
2018-12-22T00:57:27.176Z,0.00
2018-12-22T00:58:30.781Z,0.00
2018-12-22T00:59:27.172Z,0.00
2018-12-22T01:00:27.209Z,0.00
2018-12-22T01:01:27.173Z,0.00
2018-12-22T01:02:27.172Z,0.00
2018-12-22T01:03:27.171Z,0.00
2018-12-22T01:04:27.169Z,0.00
2018-12-22T01:05:27.193Z,0.00
2018-12-22T01:06:27.169Z,0.00
2018-12-22T01:07:27.194Z,0.00
2018-12-22T01:08:27.162Z,0.00
2018-12-22T01:09:27.166Z,0.00
2018-12-22T01:10:27.167Z,0.00
2018-12-22T01:11:27.186Z,0.00
2018-12-22T01:12:27.156Z,0.00
2018-12-22T01:13:27.161Z,0.00
2018-12-22T01:14:27.153Z,0.00
2018-12-22T01:15:27.181Z,0.00
2018-12-22T01:16:27.153Z,0.00
2018-12-22T01:17:27.150Z,0.00
2018-12-22T01:18:27.151Z,0.00
2018-12-22T01:19:27.151Z,0.00
2018-12-22T01:20:27.173Z,0.00
2018-12-22T01:21:27.145Z,0.00
2018-12-22T01:22:27.170Z,0.00
2018-12-22T01:23:27.142Z,0.00
2018-12-22T01:24:27.142Z,0.00
2018-12-22T01:25:27.138Z,0.00
2018-12-22T01:26:27.167Z,0.00
2018-12-22T01:27:27.137Z,0.00
2018-12-22T01:28:27.141Z,0.00
2018-12-22T01:29:27.134Z,0.00
2018-12-22T01:30:27.131Z,0.00
2018-12-22T01:31:27.158Z,0.00
2018-12-22T01:32:27.130Z,0.00
2018-12-22T01:33:27.128Z,0.00
2018-12-22T01:34:27.128Z,0.00
2018-12-22T01:35:27.128Z,0.00
2018-12-22T01:36:27.156Z,0.00
2018-12-22T01:37:27.123Z,0.00
2018-12-22T01:38:27.120Z,0.00
2018-12-22T01:39:27.122Z,0.00
2018-12-22T01:40:27.119Z,0.00
2018-12-22T01:41:27.147Z,0.00
2018-12-22T01:42:27.116Z,0.00
2018-12-22T01:43:27.142Z,0.00
2018-12-22T01:44:27.109Z,0.00
2018-12-22T01:45:27.111Z,0.00
2018-12-22T01:46:27.142Z,0.00
2018-12-22T01:47:27.111Z,0.00
2018-12-22T01:48:27.106Z,0.00
2018-12-22T01:49:27.123Z,0.00
2018-12-22T01:50:27.103Z,0.00
2018-12-22T01:51:27.135Z,0.00
2018-12-22T01:52:27.098Z,0.00
2018-12-22T01:53:27.105Z,0.00
2018-12-22T01:54:27.098Z,0.00
2018-12-22T01:55:27.099Z,0.00
2018-12-22T01:56:27.123Z,0.00
2018-12-22T01:57:27.092Z,0.00
2018-12-22T01:58:27.092Z,0.00
2018-12-22T01:59:27.092Z,0.00
2018-12-22T02:00:27.087Z,0.00
2018-12-22T02:01:27.119Z,0.00
2018-12-22T02:02:27.091Z,0.00
2018-12-22T02:03:27.087Z,0.00
2018-12-22T02:04:27.089Z,0.00
2018-12-22T02:05:27.079Z,0.00
2018-12-22T02:06:27.111Z,0.00
2018-12-22T02:07:27.080Z,0.00
2018-12-22T02:08:27.079Z,0.00
2018-12-22T02:09:27.079Z,0.00
2018-12-22T02:10:27.075Z,0.00
2018-12-22T02:11:27.097Z,0.00
2018-12-22T02:12:27.070Z,0.00
2018-12-22T02:13:27.071Z,0.00
2018-12-22T02:14:27.069Z,0.00
2018-12-22T02:15:27.067Z,0.00
2018-12-22T02:16:27.091Z,0.00
2018-12-22T02:17:27.063Z,0.00
2018-12-22T02:18:27.068Z,0.00
2018-12-22T02:19:27.056Z,0.00
2018-12-22T02:20:27.062Z,0.00
2018-12-22T02:21:27.085Z,0.00
2018-12-22T02:22:27.058Z,0.00
2018-12-22T02:23:27.084Z,0.00
2018-12-22T02:24:27.055Z,0.00
2018-12-22T02:25:27.051Z,0.00
2018-12-22T02:26:27.077Z,0.00
2018-12-22T02:27:27.047Z,0.00
2018-12-22T02:28:27.048Z,0.00
2018-12-22T02:29:27.045Z,0.00
2018-12-22T02:30:27.044Z,0.00
2018-12-22T02:31:27.076Z,0.00
2018-12-22T02:32:27.040Z,0.00
2018-12-22T02:33:27.043Z,0.00
2018-12-22T02:34:27.047Z,0.00
2018-12-22T02:35:27.131Z,0.00
2018-12-22T02:36:27.058Z,0.00
2018-12-22T02:37:27.035Z,0.00
2018-12-22T02:38:27.031Z,0.00
2018-12-22T02:39:27.024Z,0.00
2018-12-22T02:40:27.028Z,0.00
2018-12-22T02:41:27.063Z,0.00
2018-12-22T02:42:27.025Z,0.00
2018-12-22T02:43:27.025Z,0.00
2018-12-22T02:44:27.021Z,0.00
2018-12-22T02:45:27.027Z,0.00
2018-12-22T02:46:27.044Z,0.00
2018-12-22T02:47:27.016Z,0.00
2018-12-22T02:48:27.015Z,0.00
2018-12-22T02:49:27.012Z,0.00
2018-12-22T02:50:27.015Z,0.00
2018-12-22T02:51:27.036Z,0.00
2018-12-22T02:52:27.006Z,0.00
2018-12-22T02:53:27.011Z,0.00
2018-12-22T02:54:27.006Z,0.00
2018-12-22T02:55:27.001Z,0.00
2018-12-22T02:56:27.029Z,0.00
2018-12-22T02:57:27.020Z,0.00
2018-12-22T02:58:26.991Z,0.00
2018-12-22T02:59:26.997Z,0.00
2018-12-22T03:00:26.992Z,0.00
2018-12-22T03:01:27.122Z,0.00
2018-12-22T03:02:26.993Z,0.00
2018-12-22T03:03:26.992Z,0.00
2018-12-22T03:04:26.989Z,0.00
2018-12-22T03:05:26.984Z,0.00
2018-12-22T03:06:27.017Z,0.00
2018-12-22T03:07:26.989Z,0.00
2018-12-22T03:08:26.983Z,0.00
2018-12-22T03:09:26.986Z,0.00
2018-12-22T03:10:26.981Z,0.00
2018-12-22T03:11:27.005Z,0.00
2018-12-22T03:12:26.977Z,0.00
2018-12-22T03:13:26.976Z,0.00
2018-12-22T03:14:26.969Z,0.00
2018-12-22T03:15:26.971Z,0.00
2018-12-22T03:16:26.994Z,0.00
2018-12-22T03:17:26.966Z,0.00
2018-12-22T03:18:26.966Z,0.00
2018-12-22T03:19:26.961Z,0.00
2018-12-22T03:20:26.961Z,0.00
2018-12-22T03:21:26.987Z,0.00
2018-12-22T03:22:26.959Z,0.00
2018-12-22T03:23:26.953Z,0.00
2018-12-22T03:24:26.952Z,0.00
2018-12-22T03:25:26.950Z,0.00
2018-12-22T03:26:26.977Z,0.00
2018-12-22T03:27:26.946Z,0.00
2018-12-22T03:28:26.941Z,0.00
2018-12-22T03:29:26.946Z,0.00
2018-12-22T03:30:26.961Z,0.00
2018-12-22T03:31:26.972Z,0.00
2018-12-22T03:32:26.944Z,0.00
2018-12-22T03:33:26.935Z,0.00
2018-12-22T03:34:26.938Z,0.00
2018-12-22T03:35:26.931Z,0.00
2018-12-22T03:36:26.953Z,0.00
2018-12-22T03:37:26.926Z,0.00
2018-12-22T03:38:26.918Z,0.00
2018-12-22T03:39:26.921Z,0.00
2018-12-22T03:40:26.914Z,0.00
2018-12-22T03:41:26.939Z,0.00
2018-12-22T03:42:26.914Z,0.00
2018-12-22T03:43:26.915Z,0.00
2018-12-22T03:44:26.911Z,0.00
2018-12-22T03:45:26.908Z,0.00
2018-12-22T03:46:26.933Z,0.00
2018-12-22T03:47:26.899Z,0.00
2018-12-22T03:48:26.905Z,0.00
2018-12-22T03:49:26.899Z,0.00
2018-12-22T03:50:26.897Z,0.00
2018-12-22T03:51:26.922Z,0.00
2018-12-22T03:52:26.893Z,0.00
2018-12-22T03:53:26.894Z,0.00
2018-12-22T03:54:26.889Z,0.00
2018-12-22T03:55:26.890Z,0.00
2018-12-22T03:56:26.917Z,0.00
2018-12-22T03:57:26.914Z,0.00
2018-12-22T03:58:26.882Z,0.00
2018-12-22T03:59:26.886Z,0.00
2018-12-22T04:00:26.880Z,0.00
2018-12-22T04:01:26.907Z,0.00
2018-12-22T04:02:26.875Z,0.00
2018-12-22T04:03:26.872Z,0.00
2018-12-22T04:04:26.876Z,0.00
2018-12-22T04:05:26.873Z,0.00
2018-12-22T04:06:26.895Z,0.00
2018-12-22T04:07:26.875Z,0.00
2018-12-22T04:08:26.862Z,0.00
2018-12-22T04:09:26.875Z,0.00
2018-12-22T04:10:26.859Z,0.00
2018-12-22T04:11:26.889Z,0.00
2018-12-22T04:12:26.857Z,0.00
2018-12-22T04:13:26.857Z,0.00
2018-12-22T04:14:26.862Z,0.00
2018-12-22T04:15:26.850Z,0.00
2018-12-22T04:16:26.874Z,0.00
2018-12-22T04:17:26.846Z,0.00
2018-12-22T04:18:26.846Z,0.00
2018-12-22T04:19:26.843Z,0.00
2018-12-22T04:20:26.843Z,0.00
2018-12-22T04:21:26.863Z,0.00
2018-12-22T04:22:26.873Z,0.00
2018-12-22T04:23:26.838Z,0.00
2018-12-22T04:24:26.837Z,0.00
2018-12-22T04:25:26.830Z,0.00
2018-12-22T04:26:26.858Z,0.00
2018-12-22T04:27:26.830Z,0.00
2018-12-22T04:28:26.827Z,0.00
2018-12-22T04:29:33.773Z,0.00
2018-12-22T04:30:26.822Z,0.00
2018-12-22T04:31:26.848Z,0.00
2018-12-22T04:32:26.817Z,0.00
2018-12-22T04:33:26.815Z,0.00
2018-12-22T04:34:26.813Z,0.00
2018-12-22T04:35:26.814Z,0.00
2018-12-22T04:36:26.838Z,0.00
2018-12-22T04:37:26.812Z,0.00
2018-12-22T04:38:26.805Z,0.00
2018-12-22T04:39:26.805Z,0.00
2018-12-22T04:40:26.800Z,0.00
2018-12-22T04:41:26.826Z,0.00
2018-12-22T04:42:26.797Z,0.00
2018-12-22T04:43:26.799Z,0.00
2018-12-22T04:44:26.798Z,0.00
2018-12-22T04:45:26.792Z,0.00
2018-12-22T04:46:26.814Z,0.00
2018-12-22T04:47:26.788Z,0.00
2018-12-22T04:48:26.788Z,0.00
2018-12-22T04:49:26.784Z,0.00
2018-12-22T04:50:26.786Z,0.00
2018-12-22T04:51:26.815Z,0.00
2018-12-22T04:52:26.782Z,0.00
2018-12-22T04:53:26.779Z,0.00
2018-12-22T04:54:26.778Z,0.00
2018-12-22T04:55:26.770Z,0.00
2018-12-22T04:56:26.788Z,0.00
2018-12-22T04:57:26.768Z,0.00
2018-12-22T04:58:26.776Z,0.00
2018-12-22T04:59:26.769Z,0.00
2018-12-22T05:00:26.765Z,0.00
2018-12-22T05:01:26.810Z,0.00
2018-12-22T05:02:26.767Z,0.00
2018-12-22T05:03:26.924Z,0.00
2018-12-22T05:04:26.760Z,0.00
2018-12-22T05:05:26.759Z,0.00
2018-12-22T05:06:26.778Z,0.00
2018-12-22T05:07:26.747Z,0.00
2018-12-22T05:08:26.749Z,0.00
2018-12-22T05:09:26.741Z,0.00
2018-12-22T05:10:26.742Z,0.00
2018-12-22T05:11:26.774Z,0.00
2018-12-22T05:12:26.741Z,0.00
2018-12-22T05:13:26.741Z,0.00
2018-12-22T05:14:26.736Z,0.00
2018-12-22T05:15:26.740Z,0.00
2018-12-22T05:16:26.765Z,0.00
2018-12-22T05:17:26.734Z,0.00
2018-12-22T05:18:26.734Z,0.00
2018-12-22T05:19:26.734Z,0.00
2018-12-22T05:20:26.729Z,0.00
2018-12-22T05:21:26.758Z,0.00
2018-12-22T05:22:26.725Z,0.00
2018-12-22T05:23:26.717Z,0.00
2018-12-22T05:24:26.722Z,0.00
2018-12-22T05:25:26.714Z,0.00
2018-12-22T05:26:26.745Z,0.00
2018-12-22T05:27:26.715Z,0.00
2018-12-22T05:28:26.713Z,0.00
2018-12-22T05:29:26.709Z,0.00
2018-12-22T05:30:26.710Z,0.00
2018-12-22T05:31:26.742Z,0.00
2018-12-22T05:32:26.704Z,0.00
2018-12-22T05:33:26.703Z,0.00
2018-12-22T05:34:26.700Z,0.00
2018-12-22T05:35:26.717Z,0.00
2018-12-22T05:36:26.697Z,0.00
2018-12-22T05:37:26.696Z,0.00
2018-12-22T05:38:26.693Z,0.00
2018-12-22T05:39:26.692Z,0.00
2018-12-22T05:40:26.709Z,0.00
2018-12-22T05:41:26.712Z,0.00
2018-12-22T05:42:26.684Z,0.00
2018-12-22T05:43:26.689Z,0.00
2018-12-22T05:44:26.695Z,0.00
2018-12-22T05:45:26.681Z,0.00
2018-12-22T05:46:26.707Z,0.00
2018-12-22T05:47:26.670Z,0.00
2018-12-22T05:48:26.674Z,0.00
2018-12-22T05:49:26.672Z,0.00
2018-12-22T05:50:26.673Z,0.00
2018-12-22T05:51:26.695Z,0.00
2018-12-22T05:52:26.670Z,0.00
2018-12-22T05:53:26.663Z,0.00
2018-12-22T05:54:26.664Z,0.00
2018-12-22T05:55:26.664Z,0.00
2018-12-22T05:56:26.689Z,0.00
2018-12-22T05:57:26.655Z,0.00
2018-12-22T05:58:26.658Z,0.00
2018-12-22T05:59:26.652Z,0.00
2018-12-22T06:00:26.651Z,0.00
2018-12-22T06:01:26.677Z,0.00
2018-12-22T06:02:26.650Z,0.00
2018-12-22T06:03:26.644Z,0.00
2018-12-22T06:04:26.645Z,0.00
2018-12-22T06:05:26.632Z,0.00
2018-12-22T06:06:26.670Z,0.00
2018-12-22T06:07:26.639Z,0.00
2018-12-22T06:08:26.637Z,0.00
2018-12-22T06:09:26.631Z,0.00
2018-12-22T06:10:26.632Z,0.00
2018-12-22T06:11:26.660Z,0.00
2018-12-22T06:12:26.630Z,0.00
2018-12-22T06:13:26.626Z,0.00
2018-12-22T06:14:26.624Z,0.00
2018-12-22T06:15:26.626Z,0.00
2018-12-22T06:16:26.646Z,0.00
2018-12-22T06:17:27.584Z,0.00
2018-12-22T06:18:26.617Z,0.00
2018-12-22T06:19:26.619Z,0.00
2018-12-22T06:20:26.616Z,0.00
2018-12-22T06:21:26.641Z,0.00
2018-12-22T06:22:26.610Z,0.00
2018-12-22T06:23:26.828Z,0.00
2018-12-22T06:24:26.739Z,0.00
2018-12-22T06:25:26.607Z,0.00
2018-12-22T06:26:26.632Z,0.00
2018-12-22T06:27:26.602Z,0.00
2018-12-22T06:28:26.602Z,0.00
2018-12-22T06:29:27.229Z,0.00
2018-12-22T06:30:26.594Z,0.00
2018-12-22T06:31:26.625Z,0.00
2018-12-22T06:32:26.589Z,0.00
2018-12-22T06:33:26.589Z,0.00
2018-12-22T06:34:26.591Z,0.00
2018-12-22T06:35:26.591Z,0.00
2018-12-22T06:36:26.768Z,0.00
2018-12-22T06:37:26.612Z,0.00
2018-12-22T06:38:27.229Z,0.00
2018-12-22T06:39:26.589Z,0.00
2018-12-22T06:40:26.644Z,0.00
2018-12-22T06:41:26.574Z,0.00
2018-12-22T06:42:26.601Z,0.00
2018-12-22T06:43:26.566Z,0.00
2018-12-22T06:44:26.581Z,0.00
2018-12-22T06:45:26.576Z,0.00
2018-12-22T06:46:26.567Z,0.00
2018-12-22T06:47:26.591Z,0.00
2018-12-22T06:48:26.576Z,0.00
2018-12-22T06:49:26.558Z,0.00
2018-12-22T06:50:26.559Z,0.00
2018-12-22T06:51:26.562Z,0.00
2018-12-22T06:52:26.581Z,0.00
2018-12-22T06:53:26.553Z,0.00
2018-12-22T06:54:26.549Z,0.00
2018-12-22T06:55:26.552Z,0.00
2018-12-22T06:56:26.546Z,0.00
2018-12-22T06:57:26.582Z,0.00
2018-12-22T06:58:26.540Z,0.00
2018-12-22T06:59:26.540Z,0.00
2018-12-22T07:00:26.537Z,0.00
2018-12-22T07:01:26.537Z,0.00
2018-12-22T07:02:26.560Z,0.00
2018-12-22T07:03:26.545Z,0.00
2018-12-22T07:04:26.530Z,0.00
2018-12-22T07:05:26.527Z,0.00
2018-12-22T07:06:26.521Z,0.00
2018-12-22T07:07:26.558Z,0.00
2018-12-22T07:08:26.523Z,0.00
2018-12-22T07:09:26.532Z,0.00
2018-12-22T07:10:26.522Z,0.00
2018-12-22T07:11:26.516Z,5.63
2018-12-22T07:12:26.546Z,5.63
2018-12-22T07:13:26.513Z,5.63
2018-12-22T07:14:26.522Z,5.63
2018-12-22T07:15:26.512Z,5.63
2018-12-22T07:16:26.518Z,5.63
2018-12-22T07:17:26.536Z,5.63
2018-12-22T07:18:26.513Z,5.63
2018-12-22T07:19:26.501Z,5.63
2018-12-22T07:20:26.502Z,11.25
2018-12-22T07:21:26.493Z,11.25
2018-12-22T07:22:26.527Z,11.25
2018-12-22T07:23:26.490Z,11.25
2018-12-22T07:24:26.494Z,11.25
2018-12-22T07:25:26.500Z,5.63
2018-12-22T07:26:26.489Z,11.25
2018-12-22T07:27:26.517Z,11.25
2018-12-22T07:28:26.481Z,11.25
2018-12-22T07:29:26.482Z,11.25
2018-12-22T07:30:26.679Z,11.25
2018-12-22T07:31:26.487Z,11.25
2018-12-22T07:32:26.508Z,11.25
2018-12-22T07:33:26.528Z,11.25
2018-12-22T07:34:26.480Z,16.88
2018-12-22T07:35:26.473Z,22.50
2018-12-22T07:36:26.471Z,22.50
2018-12-22T07:37:26.499Z,22.50
2018-12-22T07:38:26.471Z,22.50
2018-12-22T07:39:26.468Z,22.50
2018-12-22T07:40:26.462Z,22.50
2018-12-22T07:41:26.462Z,28.13
2018-12-22T07:42:26.484Z,33.75
2018-12-22T07:43:26.461Z,33.75
2018-12-22T07:44:26.452Z,33.75
2018-12-22T07:45:26.454Z,45.00
2018-12-22T07:46:26.448Z,50.63
2018-12-22T07:47:26.477Z,61.88
2018-12-22T07:48:26.486Z,73.13
2018-12-22T07:49:26.442Z,73.13
2018-12-22T07:50:26.441Z,78.75
2018-12-22T07:51:26.441Z,78.75
2018-12-22T07:52:26.468Z,67.50
2018-12-22T07:53:26.438Z,61.88
2018-12-22T07:54:26.434Z,67.50
2018-12-22T07:55:26.438Z,50.63
2018-12-22T07:56:26.430Z,56.25
2018-12-22T07:57:26.450Z,56.25
2018-12-22T07:58:26.429Z,56.25
2018-12-22T07:59:26.451Z,61.88
2018-12-22T08:00:34.564Z,67.50
2018-12-22T08:01:26.421Z,73.13
2018-12-22T08:02:26.448Z,67.50
2018-12-22T08:03:26.418Z,78.75
2018-12-22T08:04:26.415Z,67.50
2018-12-22T08:05:26.414Z,67.50
2018-12-22T08:06:26.413Z,73.13
2018-12-22T08:07:26.438Z,61.88
2018-12-22T08:08:26.408Z,61.88
2018-12-22T08:09:26.406Z,67.50
2018-12-22T08:10:26.406Z,67.50
2018-12-22T08:11:26.415Z,61.88
2018-12-22T08:12:26.430Z,61.88
2018-12-22T08:13:26.398Z,73.13
2018-12-22T08:14:26.399Z,78.75
2018-12-22T08:15:26.395Z,84.38
2018-12-22T08:16:26.395Z,106.88
2018-12-22T08:17:26.424Z,135.00
2018-12-22T08:18:26.391Z,140.63
2018-12-22T08:19:26.392Z,157.50
2018-12-22T08:20:26.392Z,196.88
2018-12-22T08:21:26.386Z,219.38
2018-12-22T08:22:26.410Z,219.38
2018-12-22T08:23:26.384Z,247.50
2018-12-22T08:24:26.379Z,393.75
2018-12-22T08:25:26.376Z,399.38
2018-12-22T08:26:26.377Z,337.50
2018-12-22T08:27:26.399Z,405.00
2018-12-22T08:28:26.368Z,444.38
2018-12-22T08:29:26.372Z,399.38
2018-12-22T08:30:26.377Z,371.25
2018-12-22T08:31:26.368Z,360.00
2018-12-22T08:32:26.399Z,320.63
2018-12-22T08:33:26.370Z,270.00
2018-12-22T08:34:26.363Z,230.63
2018-12-22T08:35:26.363Z,157.50
2018-12-22T08:36:26.365Z,129.38
2018-12-22T08:37:26.391Z,129.38
2018-12-22T08:38:26.362Z,135.00
2018-12-22T08:39:26.361Z,129.38
2018-12-22T08:40:26.358Z,129.38
2018-12-22T08:41:26.360Z,140.63
2018-12-22T08:42:26.387Z,140.63
2018-12-22T08:43:26.360Z,118.13
2018-12-22T08:44:26.355Z,118.13
2018-12-22T08:45:26.355Z,123.75
2018-12-22T08:46:26.355Z,129.38
2018-12-22T08:47:26.379Z,135.00
2018-12-22T08:48:26.351Z,174.38
2018-12-22T08:49:26.351Z,168.75
2018-12-22T08:50:26.353Z,168.75
2018-12-22T08:51:26.351Z,180.00
2018-12-22T08:52:26.375Z,213.75
2018-12-22T08:53:26.349Z,230.63
2018-12-22T08:54:26.351Z,275.63
2018-12-22T08:55:26.343Z,399.38
2018-12-22T08:56:26.342Z,450.00
2018-12-22T08:57:26.371Z,376.88
2018-12-22T08:58:26.338Z,331.88
2018-12-22T08:59:26.336Z,309.38
2018-12-22T09:00:26.339Z,281.25
2018-12-22T09:01:26.334Z,258.75
2018-12-22T09:02:26.364Z,258.75
2018-12-22T09:03:26.362Z,258.75
2018-12-22T09:04:26.330Z,225.00
2018-12-22T09:05:26.332Z,185.63
2018-12-22T09:06:26.329Z,163.13
2018-12-22T09:07:26.439Z,168.75
2018-12-22T09:08:26.329Z,208.13
2018-12-22T09:09:26.331Z,230.63
2018-12-22T09:10:26.327Z,270.00
2018-12-22T09:11:26.323Z,270.00
2018-12-22T09:12:26.350Z,275.63
2018-12-22T09:13:26.323Z,208.13
2018-12-22T09:14:26.319Z,202.50
2018-12-22T09:15:26.320Z,253.13
2018-12-22T09:16:26.343Z,275.63
2018-12-22T09:17:26.344Z,253.13
2018-12-22T09:18:26.315Z,196.88
2018-12-22T09:19:26.315Z,151.88
2018-12-22T09:20:26.314Z,140.63
2018-12-22T09:21:26.311Z,191.25
2018-12-22T09:22:26.341Z,202.50
2018-12-22T09:23:26.313Z,191.25
2018-12-22T09:24:26.310Z,213.75
2018-12-22T09:25:26.304Z,275.63
2018-12-22T09:26:26.304Z,241.88
2018-12-22T09:27:26.334Z,253.13
2018-12-22T09:28:26.303Z,281.25
2018-12-22T09:29:26.299Z,292.50
2018-12-22T09:30:26.302Z,360.00
2018-12-22T09:31:26.299Z,315.00
2018-12-22T09:32:26.293Z,264.38
2018-12-22T09:33:26.323Z,253.13
2018-12-22T09:34:26.296Z,202.50
2018-12-22T09:35:26.295Z,230.63
2018-12-22T09:36:26.292Z,225.00
2018-12-22T09:37:26.291Z,185.63
2018-12-22T09:38:26.313Z,196.88
2018-12-22T09:39:26.284Z,247.50
2018-12-22T09:40:26.288Z,303.75
2018-12-22T09:41:26.288Z,303.75
2018-12-22T09:42:26.279Z,253.13
2018-12-22T09:43:26.311Z,241.88
2018-12-22T09:44:26.283Z,270.00
2018-12-22T09:45:26.282Z,298.13
2018-12-22T09:46:26.280Z,320.63
2018-12-22T09:47:26.284Z,326.25
2018-12-22T09:48:26.307Z,348.75
2018-12-22T09:49:26.272Z,315.00
2018-12-22T09:50:26.275Z,292.50
2018-12-22T09:51:26.268Z,298.13
2018-12-22T09:52:26.272Z,258.75
2018-12-22T09:53:26.295Z,281.25
2018-12-22T09:54:26.267Z,309.38
2018-12-22T09:55:26.268Z,365.63
2018-12-22T09:56:26.264Z,331.88
2018-12-22T09:57:26.263Z,320.63
2018-12-22T09:58:26.295Z,405.00
2018-12-22T09:59:26.261Z,438.75
2018-12-22T10:00:26.263Z,326.25
2018-12-22T10:01:26.259Z,258.75
2018-12-22T10:02:26.260Z,264.38
2018-12-22T10:03:26.285Z,292.50
2018-12-22T10:04:26.256Z,286.88
2018-12-22T10:05:26.256Z,270.00
2018-12-22T10:06:26.250Z,326.25
2018-12-22T10:07:26.258Z,343.13
2018-12-22T10:08:26.276Z,275.63
2018-12-22T10:09:26.249Z,292.50
2018-12-22T10:10:26.250Z,303.75
2018-12-22T10:11:26.248Z,247.50
2018-12-22T10:12:26.241Z,219.38
2018-12-22T10:13:26.272Z,275.63
2018-12-22T10:14:26.244Z,264.38
2018-12-22T10:15:26.244Z,270.00
2018-12-22T10:16:26.240Z,286.88
2018-12-22T10:17:26.271Z,343.13
2018-12-22T10:18:26.243Z,348.75
2018-12-22T10:19:26.241Z,331.88
2018-12-22T10:20:26.239Z,275.63
2018-12-22T10:21:26.236Z,270.00
2018-12-22T10:22:26.259Z,320.63
2018-12-22T10:23:26.232Z,309.38
2018-12-22T10:24:26.225Z,354.38
2018-12-22T10:25:26.234Z,376.88
2018-12-22T10:26:26.232Z,388.13
2018-12-22T10:27:26.258Z,416.25
2018-12-22T10:28:26.228Z,371.25
2018-12-22T10:29:26.224Z,292.50
2018-12-22T10:30:26.220Z,225.00
2018-12-22T10:31:26.223Z,270.00
2018-12-22T10:32:26.252Z,331.88
2018-12-22T10:33:26.220Z,331.88
2018-12-22T10:34:26.220Z,286.88
2018-12-22T10:35:26.223Z,270.00
2018-12-22T10:36:26.217Z,286.88
2018-12-22T10:37:26.243Z,270.00
2018-12-22T10:38:26.215Z,236.25
2018-12-22T10:39:26.217Z,247.50
2018-12-22T10:40:26.216Z,298.13
2018-12-22T10:41:26.215Z,281.25
2018-12-22T10:42:26.240Z,275.63
2018-12-22T10:43:26.208Z,281.25
2018-12-22T10:44:26.239Z,315.00
2018-12-22T10:45:26.208Z,354.38
2018-12-22T10:46:26.208Z,343.13
2018-12-22T10:47:26.209Z,320.63
2018-12-22T10:48:26.264Z,292.50
2018-12-22T10:49:26.204Z,281.25
2018-12-22T10:50:26.203Z,309.38
2018-12-22T10:51:26.206Z,315.00
2018-12-22T10:52:26.232Z,326.25
2018-12-22T10:53:26.203Z,326.25
2018-12-22T10:54:26.245Z,315.00
2018-12-22T10:55:26.199Z,348.75
2018-12-22T10:56:26.197Z,354.38
2018-12-22T10:57:26.195Z,348.75
2018-12-22T10:58:26.226Z,348.75
2018-12-22T10:59:26.191Z,360.00
2018-12-22T11:00:26.193Z,365.63
2018-12-22T11:01:26.901Z,438.75
2018-12-22T11:02:26.193Z,399.38
2018-12-22T11:03:26.213Z,348.75
2018-12-22T11:04:26.211Z,309.38
2018-12-22T11:05:26.187Z,337.50
2018-12-22T11:06:26.184Z,360.00
2018-12-22T11:07:26.184Z,365.63
2018-12-22T11:08:26.188Z,331.88
2018-12-22T11:09:26.210Z,348.75
2018-12-22T11:10:26.180Z,348.75
2018-12-22T11:11:26.181Z,309.38
2018-12-22T11:12:26.177Z,360.00
2018-12-22T11:13:26.180Z,376.88
2018-12-22T11:14:26.209Z,416.25
2018-12-22T11:15:26.171Z,438.75
2018-12-22T11:16:26.171Z,433.13
2018-12-22T11:17:26.171Z,399.38
2018-12-22T11:18:26.177Z,382.50
2018-12-22T11:19:26.200Z,388.13
2018-12-22T11:20:26.163Z,410.63
2018-12-22T11:21:26.168Z,427.50
2018-12-22T11:22:26.168Z,461.25
2018-12-22T11:23:26.164Z,450.00
2018-12-22T11:24:26.194Z,444.38
2018-12-22T11:25:26.164Z,455.63
2018-12-22T11:26:26.162Z,427.50
2018-12-22T11:27:26.164Z,444.38
2018-12-22T11:28:26.163Z,421.88
2018-12-22T11:29:26.188Z,410.63
2018-12-22T11:30:26.152Z,388.13
2018-12-22T11:31:27.671Z,376.88
2018-12-22T11:32:26.156Z,410.63
2018-12-22T11:33:26.152Z,455.63
2018-12-22T11:34:26.184Z,472.50
2018-12-22T11:35:26.162Z,472.50
2018-12-22T11:36:26.154Z,489.38
2018-12-22T11:37:26.203Z,472.50
2018-12-22T11:38:26.148Z,444.38
2018-12-22T11:39:26.173Z,450.00
2018-12-22T11:40:26.160Z,382.50
2018-12-22T11:41:26.145Z,348.75
2018-12-22T11:42:26.145Z,337.50
2018-12-22T11:43:26.146Z,371.25
2018-12-22T11:44:26.173Z,393.75
2018-12-22T11:45:26.145Z,416.25
2018-12-22T11:46:26.143Z,433.13
2018-12-22T11:47:26.141Z,416.25
2018-12-22T11:48:26.141Z,382.50
2018-12-22T11:49:26.156Z,320.63
2018-12-22T11:50:26.141Z,270.00
2018-12-22T11:51:26.132Z,225.00
2018-12-22T11:52:26.141Z,196.88
2018-12-22T11:53:26.137Z,180.00
2018-12-22T11:54:26.160Z,163.13
2018-12-22T11:55:26.132Z,168.75
2018-12-22T11:56:26.129Z,168.75
2018-12-22T11:57:26.129Z,196.88
2018-12-22T11:58:26.189Z,208.13
2018-12-22T11:59:26.157Z,202.50
2018-12-22T12:00:26.125Z,219.38
2018-12-22T12:01:26.123Z,230.63
2018-12-22T12:02:26.126Z,213.75
2018-12-22T12:03:26.117Z,196.88
2018-12-22T12:04:26.146Z,185.63
2018-12-22T12:05:26.121Z,185.63
2018-12-22T12:06:26.120Z,191.25
2018-12-22T12:07:26.117Z,196.88
2018-12-22T12:08:26.107Z,202.50
2018-12-22T12:09:26.142Z,213.75
2018-12-22T12:10:26.113Z,225.00
2018-12-22T12:11:26.110Z,236.25
2018-12-22T12:12:26.113Z,230.63
2018-12-22T12:13:26.105Z,196.88
2018-12-22T12:14:26.131Z,146.25
2018-12-22T12:15:26.106Z,123.75
2018-12-22T12:16:26.099Z,123.75
2018-12-22T12:17:26.098Z,123.75
2018-12-22T12:18:26.101Z,106.88
2018-12-22T12:19:26.135Z,106.88
2018-12-22T12:20:26.093Z,123.75
2018-12-22T12:21:26.093Z,118.13
2018-12-22T12:22:26.093Z,112.50
2018-12-22T12:23:26.090Z,106.88
2018-12-22T12:24:26.117Z,106.88
2018-12-22T12:25:26.085Z,106.88
2018-12-22T12:26:26.086Z,106.88
2018-12-22T12:27:26.086Z,95.63
2018-12-22T12:28:26.086Z,106.88
2018-12-22T12:29:26.113Z,106.88
2018-12-22T12:30:26.076Z,101.25
2018-12-22T12:31:26.081Z,84.38
2018-12-22T12:32:26.075Z,61.88
2018-12-22T12:33:26.070Z,61.88
2018-12-22T12:34:26.100Z,61.88
2018-12-22T12:35:26.070Z,56.25
2018-12-22T12:36:26.063Z,56.25
2018-12-22T12:37:26.068Z,56.25
2018-12-22T12:38:26.062Z,67.50
2018-12-22T12:39:26.091Z,67.50
2018-12-22T12:40:26.062Z,90.00
2018-12-22T12:41:26.059Z,78.75
2018-12-22T12:42:26.058Z,67.50
2018-12-22T12:43:26.055Z,67.50
2018-12-22T12:44:26.078Z,61.88
2018-12-22T12:45:26.050Z,61.88
2018-12-22T12:46:26.051Z,50.63
2018-12-22T12:47:26.046Z,45.00
2018-12-22T12:48:26.038Z,45.00
2018-12-22T12:49:26.070Z,39.38
2018-12-22T12:50:26.040Z,39.38
2018-12-22T12:51:26.034Z,45.00
2018-12-22T12:52:26.036Z,50.63
2018-12-22T12:53:26.034Z,56.25
2018-12-22T12:54:26.065Z,67.50
2018-12-22T12:55:26.031Z,78.75
2018-12-22T12:56:26.029Z,73.13
2018-12-22T12:57:27.122Z,73.13
2018-12-22T12:58:26.024Z,73.13